Time;durP1;ratioP1;P1;durP2;ratioP2;P2;SDS_P1;SDS_P2;PMS_P1;PMS_P2;Temp;Humidity;BMP_temperature;BMP_pressure;BME280_temperature;BME280_humidity;BME280_pressure;Samples;Min_cycle;Max_cycle;Signal;HPM_P1;HPM_P2
2023/09/23 00:01:35;;;;;;;449.63;204.70;;;;;;;;;;4971021;28;20228;-67
2023/09/23 00:04:01;;;;;;;477.27;220.27;;;;;;;;;;4986912;28;20195;-66
2023/09/23 00:06:27;;;;;;;429.70;192.90;;;;;;;;;;4989047;28;20237;-67
2023/09/23 00:08:55;;;;;;;484.30;219.67;;;;;;;;;;4991857;28;20245;-66
2023/09/23 00:11:21;;;;;;;448.23;200.77;;;;;;;;;;4985022;28;20225;-66
2023/09/23 00:13:47;;;;;;;451.43;212.27;;;;;;;;;;4985613;28;20222;-66
2023/09/23 00:16:16;;;;;;;422.93;189.93;;;;;;;;;;4986028;28;20326;-66
2023/09/23 00:18:45;;;;;;;481.00;220.93;;;;;;;;;;4966069;28;20229;-67
2023/09/23 00:21:14;;;;;;;458.93;205.23;;;;;;;;;;4974446;28;20208;-67
2023/09/23 00:23:40;;;;;;;472.43;217.23;;;;;;;;;;4971801;28;20556;-66
2023/09/23 00:26:06;;;;;;;457.37;206.20;;;;;;;;;;4971964;28;20780;-67
2023/09/23 00:28:32;;;;;;;435.13;197.67;;;;;;;;;;4989370;28;20221;-66
2023/09/23 00:31:02;;;;;;;445.13;206.83;;;;;;;;;;4970342;28;20193;-67
2023/09/23 00:33:30;;;;;;;468.33;212.90;;;;;;;;;;4986568;28;20209;-67
2023/09/23 00:35:56;;;;;;;446.03;200.87;;;;;;;;;;4987397;28;20303;-67
2023/09/23 00:38:22;;;;;;;465.37;209.03;;;;;;;;;;4984122;28;20311;-66
2023/09/23 00:40:48;;;;;;;487.47;225.93;;;;;;;;;;4991397;28;20222;-66
2023/09/23 00:43:17;;;;;;;476.47;213.47;;;;;;;;;;4987708;28;20216;-67
2023/09/23 00:45:45;;;;;;;469.97;217.20;;;;;;;;;;4988303;28;20395;-67
2023/09/23 00:48:11;;;;;;;449.00;201.37;;;;;;;;;;4989514;28;20271;-66
2023/09/23 00:50:37;;;;;;;418.20;187.97;;;;;;;;;;4986159;28;20750;-67
2023/09/23 00:53:04;;;;;;;423.03;186.23;;;;;;;;;;4988328;28;20224;-66
2023/09/23 00:55:39;;;;;;;440.93;196.80;;;;;;;;;;4992185;28;20782;-66
2023/09/23 00:58:07;;;;;;;445.50;198.83;;;;;;;;;;4990971;28;20449;-66
2023/09/23 01:00:35;;;;;;;453.87;199.73;;;;;;;;;;4980516;28;20251;-66
2023/09/23 01:03:01;;;;;;;447.40;200.30;;;;;;;;;;4979660;28;20225;-67
2023/09/23 01:05:28;;;;;;;434.37;190.17;;;;;;;;;;4983778;28;20231;-67
2023/09/23 01:08:12;;;;;;;458.17;207.63;;;;;;;;;;4991511;28;20399;-67
2023/09/23 01:10:38;;;;;;;487.00;225.37;;;;;;;;;;4988702;28;20582;-66
2023/09/23 01:13:07;;;;;;;428.33;190.50;;;;;;;;;;4983943;28;20280;-66
2023/09/23 01:15:40;;;;;;;459.47;206.07;;;;;;;;;;4988326;28;20616;-66
2023/09/23 01:18:13;;;;;;;465.97;205.87;;;;;;;;;;4986201;28;20667;-67
2023/09/23 01:20:41;;;;;;;458.20;209.17;;;;;;;;;;4989838;28;20209;-67
2023/09/23 01:23:07;;;;;;;465.40;206.03;;;;;;;;;;4971986;28;20213;-66
2023/09/23 01:25:36;;;;;;;472.43;214.80;;;;;;;;;;4987602;28;20219;-66
2023/09/23 01:28:08;;;;;;;425.50;184.60;;;;;;;;;;4974629;28;20205;-67
2023/09/23 01:30:35;;;;;;;428.73;187.83;;;;;;;;;;4988973;28;20189;-66
2023/09/23 01:33:05;;;;;;;458.50;205.53;;;;;;;;;;4989040;28;20209;-67
2023/09/23 01:35:31;;;;;;;477.47;212.43;;;;;;;;;;4990910;28;20217;-67
2023/09/23 01:37:58;;;;;;;472.47;215.43;;;;;;;;;;4990977;28;20212;-67
2023/09/23 01:40:24;;;;;;;449.33;194.07;;;;;;;;;;4985204;28;20707;-67
2023/09/23 01:42:51;;;;;;;461.87;209.90;;;;;;;;;;4984884;28;20707;-66
2023/09/23 01:45:19;;;;;;;432.53;190.60;;;;;;;;;;4975220;28;20169;-67
2023/09/23 01:47:45;;;;;;;482.83;216.20;;;;;;;;;;4990608;28;20569;-67
2023/09/23 01:50:13;;;;;;;432.67;188.87;;;;;;;;;;4994082;28;20234;-66
2023/09/23 01:52:43;;;;;;;458.03;200.77;;;;;;;;;;4997420;28;20217;-66
2023/09/23 01:55:10;;;;;;;463.57;203.97;;;;;;;;;;4979136;28;20212;-67
2023/09/23 01:57:36;;;;;;;462.07;203.93;;;;;;;;;;4985431;28;20180;-66
2023/09/23 02:00:17;;;;;;;453.33;198.43;;;;;;;;;;4971759;28;20708;-66
2023/09/23 02:02:44;;;;;;;480.67;217.23;;;;;;;;;;4968339;28;20274;-67
2023/09/23 02:05:10;;;;;;;430.43;186.53;;;;;;;;;;4982304;28;20292;-66
2023/09/23 02:07:36;;;;;;;436.27;192.30;;;;;;;;;;4989797;28;20308;-67
2023/09/23 02:10:02;;;;;;;425.77;188.67;;;;;;;;;;4967036;28;20940;-67
2023/09/23 02:12:28;;;;;;;440.07;189.90;;;;;;;;;;4990505;28;20776;-67
2023/09/23 02:14:54;;;;;;;484.17;216.13;;;;;;;;;;4988543;28;20248;-67
2023/09/23 02:17:20;;;;;;;454.13;195.17;;;;;;;;;;4989559;28;20359;-66
2023/09/23 02:19:47;;;;;;;441.10;196.77;;;;;;;;;;4987895;28;20220;-67
2023/09/23 02:22:15;;;;;;;429.40;186.97;;;;;;;;;;4970884;28;20221;-66
2023/09/23 02:24:41;;;;;;;444.60;194.33;;;;;;;;;;4986469;28;20178;-66
2023/09/23 02:27:07;;;;;;;436.83;192.40;;;;;;;;;;4971415;28;20209;-66
2023/09/23 02:29:35;;;;;;;470.73;211.20;;;;;;;;;;4989656;28;20765;-66
2023/09/23 02:32:01;;;;;;;459.47;201.70;;;;;;;;;;4991076;28;20225;-67
2023/09/23 02:34:28;;;;;;;455.53;199.00;;;;;;;;;;4993626;28;20598;-66
2023/09/23 02:36:54;;;;;;;429.33;184.97;;;;;;;;;;4987916;28;20284;-66
2023/09/23 02:39:20;;;;;;;446.97;193.90;;;;;;;;;;4987999;28;20181;-66
2023/09/23 02:41:50;;;;;;;453.90;204.50;;;;;;;;;;4992485;28;20219;-67
2023/09/23 02:44:19;;;;;;;463.00;202.67;;;;;;;;;;4989531;28;20810;-66
2023/09/23 02:46:54;;;;;;;439.13;200.93;;;;;;;;;;4985372;28;20216;-66
2023/09/23 02:49:21;;;;;;;431.37;192.77;;;;;;;;;;4988063;28;20236;-66
2023/09/23 02:51:49;;;;;;;467.13;212.27;;;;;;;;;;4986834;28;20285;-66
2023/09/23 02:54:17;;;;;;;439.13;193.13;;;;;;;;;;4969298;28;20355;-67
2023/09/23 02:56:46;;;;;;;445.07;197.33;;;;;;;;;;4987540;28;20232;-67
2023/09/23 02:59:13;;;;;;;425.10;184.33;;;;;;;;;;4992921;28;20283;-66
2023/09/23 03:01:44;;;;;;;428.53;188.93;;;;;;;;;;4973277;28;20627;-67
2023/09/23 03:04:16;;;;;;;427.70;184.93;;;;;;;;;;4983926;28;20224;-67
2023/09/23 03:06:50;;;;;;;425.77;191.10;;;;;;;;;;4965786;28;20228;-67
2023/09/23 03:09:23;;;;;;;442.87;196.37;;;;;;;;;;4987860;28;20217;-67
2023/09/23 03:11:53;;;;;;;453.50;204.60;;;;;;;;;;4986223;28;20220;-67
2023/09/23 03:14:23;;;;;;;449.23;198.13;;;;;;;;;;4984837;28;20336;-67
2023/09/23 03:16:54;;;;;;;474.43;210.13;;;;;;;;;;4990232;28;20213;-67
2023/09/23 03:19:26;;;;;;;439.50;190.50;;;;;;;;;;4970714;28;20235;-66
2023/09/23 03:21:55;;;;;;;461.23;207.97;;;;;;;;;;4966545;28;20208;-66
2023/09/23 03:24:21;;;;;;;422.73;180.17;;;;;;;;;;4989178;28;20239;-67
2023/09/23 03:26:47;;;;;;;447.87;201.67;;;;;;;;;;4985131;28;20217;-67
2023/09/23 03:29:14;;;;;;;459.03;198.10;;;;;;;;;;4983148;28;20224;-66
2023/09/23 03:31:40;;;;;;;464.33;199.93;;;;;;;;;;4989130;28;20245;-67
2023/09/23 03:34:07;;;;;;;437.03;191.00;;;;;;;;;;4971915;28;20216;-66
2023/09/23 03:36:33;;;;;;;429.63;183.27;;;;;;;;;;4986468;28;20196;-66
2023/09/23 03:39:00;;;;;;;422.23;184.40;;;;;;;;;;4975057;28;20221;-67
2023/09/23 03:41:27;;;;;;;505.93;248.30;;;;;;;;;;4994783;23;20213;-52
2023/09/23 03:43:53;;;;;;;478.83;227.13;;;;;;;;;;4979507;28;20562;-50
2023/09/23 03:46:19;;;;;;;445.70;209.57;;;;;;;;;;4975646;28;20293;-50
2023/09/23 03:48:46;;;;;;;460.10;221.33;;;;;;;;;;4975284;28;20700;-50
2023/09/23 03:51:14;;;;;;;438.50;205.07;;;;;;;;;;4968118;28;20217;-50
2023/09/23 03:53:40;;;;;;;435.03;204.37;;;;;;;;;;4971715;28;20241;-50
2023/09/23 03:56:06;;;;;;;439.73;204.63;;;;;;;;;;4967757;28;20312;-49
2023/09/23 03:58:32;;;;;;;459.27;212.20;;;;;;;;;;4965529;28;20309;-50
2023/09/23 04:01:06;;;;;;;493.87;247.93;;;;;;;;;;4962298;28;20642;-49
2023/09/23 04:03:34;;;;;;;453.10;209.57;;;;;;;;;;4976511;28;20668;-50
2023/09/23 04:06:00;;;;;;;487.27;227.97;;;;;;;;;;4970053;28;20221;-50
2023/09/23 04:08:26;;;;;;;447.03;206.17;;;;;;;;;;4969486;28;20637;-49
2023/09/23 04:10:52;;;;;;;489.87;236.07;;;;;;;;;;4964444;28;20351;-50
2023/09/23 04:13:18;;;;;;;434.30;188.10;;;;;;;;;;5013818;23;20362;-73
2023/09/23 04:15:44;;;;;;;441.73;195.30;;;;;;;;;;5011332;28;22061;-72
2023/09/23 04:18:11;;;;;;;446.07;193.60;;;;;;;;;;5002233;28;20200;-72
2023/09/23 04:20:37;;;;;;;443.97;192.20;;;;;;;;;;5019746;28;20219;-73
2023/09/23 04:23:04;;;;;;;449.83;191.83;;;;;;;;;;4999588;28;20233;-73
2023/09/23 04:25:30;;;;;;;440.97;183.27;;;;;;;;;;5013257;28;23112;-72
2023/09/23 04:27:56;;;;;;;453.63;193.67;;;;;;;;;;4998267;28;20212;-73
2023/09/23 04:30:22;;;;;;;419.67;179.37;;;;;;;;;;4999265;28;20189;-73
2023/09/23 04:32:48;;;;;;;428.27;184.70;;;;;;;;;;5016063;28;20217;-73
2023/09/23 04:35:15;;;;;;;427.00;180.63;;;;;;;;;;5017718;28;20215;-72
2023/09/23 04:37:41;;;;;;;424.47;182.20;;;;;;;;;;5001447;28;20204;-73
2023/09/23 04:40:11;;;;;;;442.10;190.03;;;;;;;;;;5000576;28;21764;-72
2023/09/23 04:42:37;;;;;;;431.90;184.60;;;;;;;;;;5013363;28;20231;-72
2023/09/23 04:45:04;;;;;;;443.20;193.60;;;;;;;;;;4997556;28;20212;-73
2023/09/23 04:47:30;;;;;;;422.13;179.53;;;;;;;;;;5001204;28;20851;-73
2023/09/23 04:49:58;;;;;;;454.17;194.97;;;;;;;;;;4998831;28;20299;-72
2023/09/23 04:52:24;;;;;;;399.73;166.13;;;;;;;;;;5013276;28;20228;-73
2023/09/23 04:54:53;;;;;;;428.67;181.87;;;;;;;;;;5001268;28;20189;-73
2023/09/23 04:57:19;;;;;;;423.83;183.00;;;;;;;;;;5014227;28;20181;-73
2023/09/23 04:59:46;;;;;;;438.20;190.10;;;;;;;;;;5015425;28;20212;-73
2023/09/23 05:02:13;;;;;;;419.83;179.83;;;;;;;;;;4998948;28;20228;-73
2023/09/23 05:04:39;;;;;;;445.17;190.60;;;;;;;;;;5016522;28;20671;-73
2023/09/23 05:07:04;;;;;;;453.20;197.00;;;;;;;;;;4999041;28;20232;-73
2023/09/23 05:09:30;;;;;;;421.33;178.57;;;;;;;;;;4999534;28;20187;-72
2023/09/23 05:11:57;;;;;;;434.60;184.63;;;;;;;;;;5013648;28;20887;-74
2023/09/23 05:14:25;;;;;;;410.53;172.50;;;;;;;;;;5010228;28;20223;-71
2023/09/23 05:16:51;;;;;;;409.40;173.47;;;;;;;;;;5016670;28;20223;-75
2023/09/23 05:19:19;;;;;;;403.87;167.60;;;;;;;;;;5003087;28;20227;-74
2023/09/23 05:21:45;;;;;;;428.27;181.10;;;;;;;;;;5019729;28;21002;-72
2023/09/23 05:24:11;;;;;;;411.60;172.90;;;;;;;;;;5016994;28;22292;-74
2023/09/23 05:26:37;;;;;;;404.80;171.43;;;;;;;;;;5016090;28;20231;-73
2023/09/23 05:29:03;;;;;;;430.77;186.70;;;;;;;;;;5017324;28;20234;-71
2023/09/23 05:31:29;;;;;;;420.43;175.33;;;;;;;;;;5018268;28;20219;-72
2023/09/23 05:33:55;;;;;;;429.30;184.43;;;;;;;;;;5015031;28;20189;-71
2023/09/23 05:36:21;;;;;;;444.03;186.43;;;;;;;;;;4985768;28;20207;-72
2023/09/23 05:38:47;;;;;;;433.33;184.23;;;;;;;;;;4999672;28;20409;-72
2023/09/23 05:41:14;;;;;;;459.20;195.83;;;;;;;;;;4991648;28;20378;-72
2023/09/23 05:43:39;;;;;;;414.50;172.97;;;;;;;;;;5017860;28;20274;-72
2023/09/23 05:46:06;;;;;;;459.97;198.07;;;;;;;;;;4997052;28;20271;-72
2023/09/23 05:48:33;;;;;;;422.60;180.33;;;;;;;;;;5012444;28;20204;-72
2023/09/23 05:51:08;;;;;;;466.03;207.17;;;;;;;;;;5013288;28;20785;-71
2023/09/23 05:53:34;;;;;;;427.63;183.07;;;;;;;;;;5015762;28;20208;-71
2023/09/23 05:56:00;;;;;;;453.70;198.43;;;;;;;;;;5001132;28;20212;-72
2023/09/23 05:58:26;;;;;;;423.90;178.03;;;;;;;;;;5014080;28;20246;-72
2023/09/23 06:00:52;;;;;;;430.03;183.37;;;;;;;;;;5002799;28;20183;-72
2023/09/23 06:03:18;;;;;;;429.43;182.17;;;;;;;;;;5020582;28;20196;-72
2023/09/23 06:05:45;;;;;;;462.73;206.47;;;;;;;;;;5017236;28;20346;-72
2023/09/23 06:08:12;;;;;;;424.60;178.80;;;;;;;;;;4999332;28;20219;-72
2023/09/23 06:10:39;;;;;;;463.53;204.23;;;;;;;;;;5001235;28;20226;-71
2023/09/23 06:13:05;;;;;;;435.27;188.00;;;;;;;;;;5018593;28;20220;-72
2023/09/23 06:15:31;;;;;;;413.83;176.80;;;;;;;;;;5016730;28;20592;-72
2023/09/23 06:17:57;;;;;;;441.33;186.83;;;;;;;;;;5014754;28;20582;-72
2023/09/23 06:20:23;;;;;;;435.90;189.97;;;;;;;;;;5017378;28;20208;-72
2023/09/23 06:22:49;;;;;;;438.80;186.90;;;;;;;;;;5016367;28;20332;-72
2023/09/23 06:25:16;;;;;;;431.50;185.07;;;;;;;;;;5020745;28;20216;-72
2023/09/23 06:27:42;;;;;;;424.63;181.90;;;;;;;;;;5020246;28;20967;-72
2023/09/23 06:30:08;;;;;;;433.97;188.70;;;;;;;;;;5018606;28;20218;-72
2023/09/23 06:32:35;;;;;;;421.67;180.43;;;;;;;;;;5022797;28;20635;-72
2023/09/23 06:35:01;;;;;;;438.43;185.53;;;;;;;;;;5003439;28;20269;-72
2023/09/23 06:37:27;;;;;;;419.50;177.17;;;;;;;;;;5020469;28;20212;-72
2023/09/23 06:39:52;;;;;;;431.63;184.17;;;;;;;;;;5022859;28;20215;-71
2023/09/23 06:42:18;;;;;;;427.23;182.47;;;;;;;;;;5016914;28;20200;-72
2023/09/23 06:44:45;;;;;;;429.13;184.27;;;;;;;;;;5006019;28;20636;-75
2023/09/23 06:47:11;;;;;;;430.60;188.07;;;;;;;;;;5022734;28;20243;-74
2023/09/23 06:49:37;;;;;;;433.13;186.23;;;;;;;;;;5004750;28;20299;-75
2023/09/23 06:52:03;;;;;;;444.27;193.63;;;;;;;;;;5004824;28;20228;-74
2023/09/23 06:54:29;;;;;;;426.67;181.50;;;;;;;;;;5023437;28;20191;-74
2023/09/23 06:56:55;;;;;;;431.93;184.97;;;;;;;;;;5004583;28;21104;-74
2023/09/23 06:59:21;;;;;;;409.30;173.00;;;;;;;;;;5015658;28;20219;-76
2023/09/23 07:01:48;;;;;;;462.03;201.73;;;;;;;;;;4998192;28;20314;-73
2023/09/23 07:04:14;;;;;;;429.43;181.13;;;;;;;;;;4998886;28;20340;-72
2023/09/23 07:06:40;;;;;;;429.43;183.97;;;;;;;;;;4992004;28;20666;-75
2023/09/23 07:09:06;;;;;;;477.20;215.53;;;;;;;;;;4988110;28;20236;-71
2023/09/23 07:11:32;;;;;;;429.97;182.47;;;;;;;;;;4994717;28;20212;-72
2023/09/23 07:14:00;;;;;;;428.23;185.13;;;;;;;;;;5004191;28;20709;-72
2023/09/23 07:16:26;;;;;;;422.47;179.40;;;;;;;;;;5000458;28;20327;-79
2023/09/23 07:18:52;;;;;;;434.70;194.77;;;;;;;;;;4995627;28;20218;-73
2023/09/23 07:21:18;;;;;;;428.43;189.33;;;;;;;;;;5001977;28;20185;-72
2023/09/23 07:23:44;;;;;;;429.23;185.83;;;;;;;;;;5001129;28;20209;-72
2023/09/23 07:26:10;;;;;;;423.40;184.67;;;;;;;;;;5000760;28;20227;-72
2023/09/23 07:28:36;;;;;;;432.77;185.67;;;;;;;;;;5017801;28;20217;-72
2023/09/23 07:31:02;;;;;;;442.10;193.70;;;;;;;;;;5015648;28;20180;-72
2023/09/23 07:33:28;;;;;;;416.17;179.87;;;;;;;;;;5003398;28;20200;-72
2023/09/23 07:35:54;;;;;;;446.30;192.60;;;;;;;;;;5019945;28;20212;-77
2023/09/23 07:38:19;;;;;;;448.27;199.77;;;;;;;;;;4999394;28;20655;-76
2023/09/23 07:40:45;;;;;;;451.37;202.77;;;;;;;;;;5021195;28;20278;-78
2023/09/23 07:43:12;;;;;;;422.23;179.67;;;;;;;;;;5003792;28;20282;-77
2023/09/23 07:45:37;;;;;;;425.27;182.70;;;;;;;;;;5004092;28;20180;-75
2023/09/23 07:48:04;;;;;;;449.80;195.97;;;;;;;;;;5016278;28;20770;-74
2023/09/23 07:50:30;;;;;;;419.97;181.93;;;;;;;;;;5002157;28;20259;-70
2023/09/23 07:52:56;;;;;;;421.47;182.17;;;;;;;;;;5000592;28;20228;-69
2023/09/23 07:55:21;;;;;;;420.20;184.43;;;;;;;;;;5022652;28;20216;-69
2023/09/23 07:57:47;;;;;;;439.77;195.27;;;;;;;;;;5001235;28;20184;-69
2023/09/23 08:00:13;;;;;;;450.23;196.43;;;;;;;;;;5021388;28;20208;-68
2023/09/23 08:02:39;;;;;;;424.73;189.30;;;;;;;;;;5021066;28;20234;-68
2023/09/23 08:05:05;;;;;;;449.67;197.33;;;;;;;;;;4999565;28;20219;-68
2023/09/23 08:07:32;;;;;;;428.50;187.33;;;;;;;;;;4999418;28;20227;-69
2023/09/23 08:09:58;;;;;;;436.10;195.63;;;;;;;;;;5014603;28;20176;-69
2023/09/23 08:12:24;;;;;;;448.27;202.97;;;;;;;;;;5012657;28;20625;-69
2023/09/23 08:14:51;;;;;;;423.83;185.00;;;;;;;;;;5016369;28;20278;-69
2023/09/23 08:17:17;;;;;;;440.20;199.53;;;;;;;;;;5000609;28;20295;-69
2023/09/23 08:19:44;;;;;;;424.87;191.57;;;;;;;;;;4996031;28;20216;-69
2023/09/23 08:22:10;;;;;;;408.70;181.30;;;;;;;;;;5016988;28;20224;-69
2023/09/23 08:24:37;;;;;;;423.83;188.97;;;;;;;;;;5002961;28;20188;-69
2023/09/23 08:27:03;;;;;;;419.50;188.00;;;;;;;;;;5002137;28;20232;-69
2023/09/23 08:29:29;;;;;;;444.93;206.70;;;;;;;;;;4999428;28;20235;-71
2023/09/23 08:31:55;;;;;;;444.43;205.83;;;;;;;;;;5015606;28;20227;-70
2023/09/23 08:34:21;;;;;;;422.23;195.50;;;;;;;;;;5014259;28;20227;-70
2023/09/23 08:36:47;;;;;;;424.47;195.07;;;;;;;;;;5015883;28;20192;-70
2023/09/23 08:39:14;;;;;;;423.83;195.43;;;;;;;;;;4999971;28;20180;-70
2023/09/23 08:41:41;;;;;;;450.43;211.00;;;;;;;;;;5017493;28;20216;-71
2023/09/23 08:44:07;;;;;;;356.07;167.30;;;;;;;;;;5021794;28;20677;-70
2023/09/23 08:46:33;;;;;;;363.10;173.23;;;;;;;;;;5005869;28;20220;-71
2023/09/23 08:49:00;;;;;;;366.63;172.63;;;;;;;;;;5023144;28;20270;-70
2023/09/23 08:51:27;;;;;;;380.03;182.57;;;;;;;;;;5004469;28;20234;-71
2023/09/23 08:53:54;;;;;;;368.33;174.70;;;;;;;;;;5022530;28;20215;-70
2023/09/23 08:56:21;;;;;;;384.87;182.73;;;;;;;;;;5021131;28;20246;-70
2023/09/23 08:58:48;;;;;;;372.60;177.50;;;;;;;;;;5022180;28;20223;-70
2023/09/23 09:01:15;;;;;;;365.67;172.13;;;;;;;;;;5022210;28;20232;-70
2023/09/23 09:03:41;;;;;;;369.53;173.00;;;;;;;;;;5005572;28;20180;-70
2023/09/23 09:06:17;;;;;;;374.03;176.67;;;;;;;;;;5022248;28;20244;-70
2023/09/23 09:08:43;;;;;;;386.03;181.60;;;;;;;;;;5022697;28;20219;-70
2023/09/23 09:11:09;;;;;;;390.63;186.77;;;;;;;;;;5021752;28;20262;-70
2023/09/23 09:13:36;;;;;;;364.33;167.00;;;;;;;;;;5021579;28;20382;-70
2023/09/23 09:16:05;;;;;;;341.47;156.40;;;;;;;;;;5022624;28;20176;-70
2023/09/23 09:18:31;;;;;;;374.73;175.03;;;;;;;;;;5021323;28;20181;-70
2023/09/23 09:20:58;;;;;;;371.57;178.20;;;;;;;;;;5021620;28;20406;-71
2023/09/23 09:23:29;;;;;;;389.20;184.80;;;;;;;;;;5023215;28;20208;-70
2023/09/23 09:25:55;;;;;;;367.00;174.60;;;;;;;;;;5022335;28;20220;-70
2023/09/23 09:28:21;;;;;;;391.93;187.77;;;;;;;;;;5020576;28;20234;-69
2023/09/23 09:30:51;;;;;;;389.97;184.47;;;;;;;;;;5009796;28;20271;-69
2023/09/23 09:33:18;;;;;;;381.83;182.87;;;;;;;;;;5024729;28;20226;-71
2023/09/23 09:35:44;;;;;;;373.83;179.43;;;;;;;;;;5008079;28;20243;-70
2023/09/23 09:38:11;;;;;;;353.60;167.13;;;;;;;;;;5025714;28;20836;-70
2023/09/23 09:40:37;;;;;;;404.20;198.77;;;;;;;;;;5024407;28;20747;-70
2023/09/23 09:43:04;;;;;;;361.00;174.67;;;;;;;;;;5022853;28;20234;-70
2023/09/23 09:45:34;;;;;;;385.00;191.00;;;;;;;;;;5026657;28;20180;-70
2023/09/23 09:48:01;;;;;;;363.53;177.40;;;;;;;;;;5025389;28;20220;-70
2023/09/23 09:50:27;;;;;;;388.47;193.93;;;;;;;;;;5025119;28;20800;-70
2023/09/23 09:52:53;;;;;;;375.23;184.43;;;;;;;;;;5024083;28;20224;-70
2023/09/23 09:55:20;;;;;;;387.13;193.20;;;;;;;;;;5026398;28;20656;-70
2023/09/23 09:57:48;;;;;;;371.57;187.67;;;;;;;;;;5024775;28;20625;-68
2023/09/23 10:00:27;;;;;;;370.40;184.00;;;;;;;;;;5027134;28;20642;-71
2023/09/23 10:03:05;;;;;;;369.70;187.10;;;;;;;;;;5025468;28;20228;-71
2023/09/23 10:05:32;;;;;;;450.40;214.93;;;;;;;;;;5014936;28;20219;-69
2023/09/23 10:07:59;;;;;;;433.87;209.53;;;;;;;;;;5006866;28;20709;-69
2023/09/23 10:10:31;;;;;;;457.33;218.03;;;;;;;;;;5013377;28;20717;-69
2023/09/23 10:12:58;;;;;;;443.13;216.30;;;;;;;;;;5018958;28;20266;-69
2023/09/23 10:15:27;;;;;;;449.53;217.00;;;;;;;;;;5019348;28;20195;-68
2023/09/23 10:17:54;;;;;;;437.00;208.20;;;;;;;;;;5018056;28;20605;-69
2023/09/23 10:20:24;;;;;;;437.77;210.47;;;;;;;;;;5015571;28;20212;-68
2023/09/23 10:22:52;;;;;;;459.97;216.90;;;;;;;;;;5015977;28;20209;-70
2023/09/23 10:25:18;;;;;;;436.17;203.67;;;;;;;;;;5016202;28;20209;-70
2023/09/23 10:27:57;;;;;;;456.37;214.87;;;;;;;;;;5012154;28;20216;-69
2023/09/23 10:30:23;;;;;;;445.10;212.60;;;;;;;;;;5000617;28;20290;-75
2023/09/23 10:32:49;;;;;;;437.47;207.07;;;;;;;;;;5001868;28;20270;-78
2023/09/23 10:35:22;;;;;;;454.40;212.50;;;;;;;;;;5003111;28;20301;-74
2023/09/23 10:37:48;;;;;;;444.30;212.10;;;;;;;;;;4997529;28;20224;-60
2023/09/23 10:40:17;;;;;;;445.63;216.17;;;;;;;;;;5014188;28;20219;-59
2023/09/23 10:42:44;;;;;;;444.60;215.47;;;;;;;;;;5018529;28;20204;-59
2023/09/23 10:45:11;;;;;;;451.40;218.53;;;;;;;;;;5014165;28;20212;-60
2023/09/23 10:47:37;;;;;;;465.30;223.13;;;;;;;;;;5017056;28;20224;-60
2023/09/23 10:50:05;;;;;;;440.37;213.77;;;;;;;;;;5019632;28;20799;-59
2023/09/23 10:52:31;;;;;;;441.63;217.33;;;;;;;;;;5015693;28;20279;-60
2023/09/23 10:54:57;;;;;;;431.47;213.10;;;;;;;;;;5019674;28;20658;-60
2023/09/23 10:57:23;;;;;;;436.80;213.10;;;;;;;;;;5014593;28;20662;-59
2023/09/23 10:59:50;;;;;;;475.03;234.40;;;;;;;;;;5018754;28;20307;-60
2023/09/23 11:02:16;;;;;;;437.90;209.53;;;;;;;;;;5017647;28;20303;-60
2023/09/23 11:04:46;;;;;;;447.33;221.43;;;;;;;;;;5016005;28;20223;-62
2023/09/23 11:07:12;;;;;;;434.00;211.63;;;;;;;;;;5013151;28;20240;-59
2023/09/23 11:09:38;;;;;;;454.40;226.83;;;;;;;;;;5017407;28;20188;-69
2023/09/23 11:12:12;;;;;;;423.67;203.47;;;;;;;;;;5001007;28;20289;-69
2023/09/23 11:14:38;;;;;;;445.83;219.00;;;;;;;;;;5015742;28;20942;-70
2023/09/23 11:17:04;;;;;;;447.07;218.23;;;;;;;;;;5020331;28;20295;-70
2023/09/23 11:19:30;;;;;;;462.83;221.90;;;;;;;;;;5015509;28;20232;-70
2023/09/23 11:21:56;;;;;;;464.10;219.83;;;;;;;;;;5016300;28;20216;-73
2023/09/23 11:24:22;;;;;;;450.67;212.30;;;;;;;;;;5019108;28;20169;-72
2023/09/23 11:26:48;;;;;;;451.17;216.27;;;;;;;;;;5016402;28;20919;-72
2023/09/23 11:29:15;;;;;;;469.50;231.00;;;;;;;;;;5014936;28;20216;-72
2023/09/23 11:31:41;;;;;;;461.10;219.90;;;;;;;;;;5004058;28;20278;-72
2023/09/23 11:34:06;;;;;;;413.23;196.57;;;;;;;;;;5003309;28;20242;-72
2023/09/23 11:36:33;;;;;;;456.60;217.17;;;;;;;;;;5022542;28;20593;-73
2023/09/23 11:39:01;;;;;;;428.23;201.47;;;;;;;;;;5004720;28;20295;-72
2023/09/23 11:41:27;;;;;;;453.30;220.17;;;;;;;;;;5000067;28;20302;-72
2023/09/23 11:43:53;;;;;;;448.00;215.43;;;;;;;;;;5019787;28;20211;-72
2023/09/23 11:46:20;;;;;;;444.50;211.13;;;;;;;;;;5002851;28;20223;-72
2023/09/23 11:48:50;;;;;;;436.80;210.97;;;;;;;;;;5002118;28;20232;-71
2023/09/23 11:51:19;;;;;;;418.53;204.70;;;;;;;;;;5019333;28;20610;-72
2023/09/23 11:53:46;;;;;;;455.83;222.03;;;;;;;;;;5021501;28;20219;-72
2023/09/23 11:56:12;;;;;;;443.20;220.00;;;;;;;;;;5002234;28;20236;-72
2023/09/23 11:58:38;;;;;;;459.67;231.13;;;;;;;;;;5020313;28;20574;-72
2023/09/23 12:01:05;;;;;;;467.53;242.67;;;;;;;;;;5016695;28;20248;-72
2023/09/23 12:03:31;;;;;;;441.80;228.03;;;;;;;;;;5017775;28;20234;-72
2023/09/23 12:05:57;;;;;;;428.77;218.63;;;;;;;;;;5001448;28;20965;-72
2023/09/23 12:08:23;;;;;;;437.57;216.37;;;;;;;;;;5003049;28;20231;-75
2023/09/23 12:10:49;;;;;;;433.37;223.30;;;;;;;;;;5016812;28;21032;-73
2023/09/23 12:13:15;;;;;;;426.33;216.47;;;;;;;;;;5019611;28;20312;-74
2023/09/23 12:15:41;;;;;;;457.67;238.20;;;;;;;;;;5020495;28;20610;-74
2023/09/23 12:18:07;;;;;;;432.77;218.53;;;;;;;;;;5003825;28;20232;-74
2023/09/23 12:20:33;;;;;;;430.13;218.50;;;;;;;;;;5001046;28;20303;-74
2023/09/23 12:23:00;;;;;;;433.13;216.53;;;;;;;;;;5004095;28;20212;-74
2023/09/23 12:25:26;;;;;;;419.63;222.90;;;;;;;;;;5005380;28;20215;-74
2023/09/23 12:27:52;;;;;;;437.40;219.87;;;;;;;;;;5020921;28;20200;-73
2023/09/23 12:30:18;;;;;;;417.63;216.57;;;;;;;;;;5002153;28;20177;-74
2023/09/23 12:32:45;;;;;;;416.57;215.03;;;;;;;;;;5021891;28;20232;-74
2023/09/23 12:35:11;;;;;;;443.03;268.40;;;;;;;;;;5003996;28;20633;-74
2023/09/23 12:37:37;;;;;;;433.53;250.40;;;;;;;;;;5022077;28;20216;-74
2023/09/23 12:40:07;;;;;;;453.53;236.63;;;;;;;;;;5021574;28;20543;-74
2023/09/23 12:42:33;;;;;;;448.73;235.47;;;;;;;;;;5002139;28;20573;-74
2023/09/23 12:44:59;;;;;;;445.53;232.43;;;;;;;;;;5020496;28;20260;-74
2023/09/23 12:47:25;;;;;;;437.43;228.93;;;;;;;;;;4997869;28;20760;-74
2023/09/23 12:49:51;;;;;;;449.57;236.27;;;;;;;;;;4998804;28;20633;-74
2023/09/23 12:52:17;;;;;;;469.70;240.83;;;;;;;;;;5012518;28;20227;-74
2023/09/23 12:54:43;;;;;;;479.53;247.10;;;;;;;;;;4986291;28;20714;-74
2023/09/23 12:57:09;;;;;;;442.83;222.70;;;;;;;;;;5015995;28;20220;-74
2023/09/23 12:59:35;;;;;;;459.23;237.17;;;;;;;;;;5014358;28;20224;-74
2023/09/23 13:02:00;;;;;;;431.13;217.57;;;;;;;;;;4998405;28;20766;-74
2023/09/23 13:04:28;;;;;;;458.60;231.90;;;;;;;;;;4999277;28;20216;-74
2023/09/23 13:06:54;;;;;;;452.70;229.70;;;;;;;;;;5016502;28;20252;-74
2023/09/23 13:09:20;;;;;;;444.53;221.43;;;;;;;;;;5017312;28;20251;-74
2023/09/23 13:11:46;;;;;;;474.37;236.57;;;;;;;;;;4996205;28;20295;-74
2023/09/23 13:14:12;;;;;;;472.17;233.97;;;;;;;;;;5016520;28;20681;-74
2023/09/23 13:16:38;;;;;;;453.37;229.13;;;;;;;;;;5014464;28;20200;-74
2023/09/23 13:19:04;;;;;;;441.63;222.57;;;;;;;;;;5014343;28;20188;-74
2023/09/23 13:21:30;;;;;;;431.07;218.07;;;;;;;;;;5014174;28;20574;-74
2023/09/23 13:23:56;;;;;;;439.30;222.37;;;;;;;;;;5016928;28;20224;-73
2023/09/23 13:26:22;;;;;;;443.23;226.57;;;;;;;;;;5016436;28;20219;-74
2023/09/23 13:28:48;;;;;;;477.47;243.10;;;;;;;;;;4998156;28;20828;-74
2023/09/23 13:31:14;;;;;;;444.57;229.30;;;;;;;;;;5018264;28;20222;-74
2023/09/23 13:33:40;;;;;;;476.73;244.63;;;;;;;;;;5010545;28;20185;-74
2023/09/23 13:36:06;;;;;;;452.60;237.80;;;;;;;;;;4998180;28;20204;-74
2023/09/23 13:38:32;;;;;;;435.73;232.70;;;;;;;;;;5014408;28;20224;-74
2023/09/23 13:41:00;;;;;;;457.23;247.20;;;;;;;;;;4997485;28;20215;-74
2023/09/23 13:43:27;;;;;;;445.83;244.03;;;;;;;;;;5013101;28;20585;-74
2023/09/23 13:45:53;;;;;;;467.27;262.63;;;;;;;;;;5017278;28;20193;-73
2023/09/23 13:48:19;;;;;;;485.70;278.77;;;;;;;;;;5015703;28;20588;-74
2023/09/23 13:50:45;;;;;;;477.37;277.77;;;;;;;;;;5000449;28;20220;-75